METAR Data
IDs: Format: Raw Decoded Include TAF

Data at: 2058 UTC 18 Sep 2018

KBOW 181950Z 14005KT 10SM SCT030 33/21 A2992
KBOW 181845Z 14005KT 10SM SCT030 33/21 A2995
KBOW 181755Z 00000KT 10SM SCT030 32/22 A2998
KBOW 181655Z 00000KT 10SM SCT030 32/21 A2999
KBOW 181553Z 13004KT 10SM SCT020 31/23 A3001
KBOW 181450Z 18004KT 10SM FEW016 29/24 A3001
KBOW 181252Z 00000KT 10SM SKC 26/26 A3001
KBOW 181155Z 00000KT 10SM SKC 24/ A3001
KBOW 181130Z 00000KT 10SM SKC 24/ A3000
KBOW 181115Z AUTO 00000KT 24/ A3000 RMK AO2
KBOW 181055Z AUTO 00000KT 23/ A3000 RMK AO2
KBOW 181035Z AUTO 00000KT 23/ A2999 RMK AO2
KBOW 181015Z AUTO 00000KT 24/ A2999 RMK AO2
KBOW 180955Z AUTO 00000KT 24/ A2998 RMK AO2
KBOW 180935Z AUTO 07003KT 24/ A2998 RMK AO2
KBOW 180915Z AUTO 00000KT 24/ A2998 RMK AO2
KBOW 180855Z AUTO 00000KT 24/ A2998 RMK AO2
KBOW 180835Z AUTO 00000KT 24/ A2998 RMK AO2
KBOW 180815Z AUTO 00000KT BKN044 OVC050 24/ A2998 RMK AO2
KBOW 180755Z AUTO 00000KT 24/ A2998 RMK AO2
KBOW 180735Z AUTO 10003KT 24/24 A2998 RMK AO2
KBOW 180715Z AUTO 00000KT 25/25 A2998 RMK AO2
KBOW 180655Z AUTO 00000KT BKN042 25/25 A2999 RMK AO2
KBOW 180635Z AUTO 00000KT BKN040 25/25 A2999 RMK AO2
KBOW 180615Z AUTO 00000KT BKN038 25/25 A3000 RMK AO2
KBOW 180555Z AUTO 00000KT 25/25 A3000 RMK AO2
KBOW 180535Z AUTO 00000KT 25/26 A3000 RMK AO2
KBOW 180515Z AUTO 15005KT 26/26 A3000 RMK AO2
KBOW 180455Z AUTO 00000KT BKN037 BKN043 OVC055 26/25 A3001 RMK AO2
KBOW 180435Z AUTO 10003KT 26/25 A3001 RMK AO2
KBOW 180415Z AUTO 09004KT 26/24 A3000 RMK AO2
KBOW 180355Z AUTO 11004KT 26/25 A3000 RMK AO2
KBOW 180335Z AUTO 11004KT FEW034 OVC045 27/24 A3000 RMK AO2
KBOW 180315Z AUTO 00000KT OVC047 27/24 A3000 RMK AO2
KBOW 180255Z AUTO 00000KT SCT046 27/24 A3000 RMK AO2
KBOW 180235Z AUTO 00000KT FEW049 27/24 A3000 RMK AO2 LTG DSNT S
KBOW 180215Z AUTO 00000KT BKN048 28/24 A2999 RMK AO2 LTG DSNT N AND S
KBOW 180155Z AUTO 00000KT BKN044 BKN050 29/24 A2999 RMK AO2 LTG DSNT N AND S AND NW
KBOW 180135Z AUTO 31006KT CLR 28/24 A2998 RMK AO2
KBOW 180115Z AUTO 00000KT FEW060 27/25 A2997 RMK AO2
KBOW 180055Z AUTO 11006KT SCT060 28/25 A2996 RMK AO2
KBOW 180035Z AUTO 10005KT SCT055 SCT060 28/25 A2996 RMK AO2
KBOW 180015Z AUTO 08005KT 27/25 A2995 RMK AO2
KBOW 172355Z AUTO 05003KT CLR 28/24 A2994 RMK AO2
KBOW 172335Z AUTO 00000KT CLR 29/24 A2994 RMK AO2
KBOW 172315Z AUTO 08003KT CLR 29/24 A2993 RMK AO2
KBOW 172255Z AUTO 07003KT CLR 31/23 A2993 RMK AO2
KBOW 172235Z AUTO 07005KT FEW048 FEW055 32/23 A2993 RMK AO2
KBOW 172215Z AUTO 10004KT SCT048 32/22 A2993 RMK AO2
KBOW 172155Z AUTO 13003KT CLR 32/22 A2993 RMK AO2
KBOW 172135Z AUTO 12005KT CLR 33/22 A2993 RMK AO2 LTG DSNT W AND NW
KBOW 172047Z 00000KT 10SM SCT040 33/22 A2994
KBOW 171947Z 00000KT 10SM SCT040 32/22 A2995
KBOW 171848Z 15004KT 10SM BKN040 32/22 A2997
KBOW 171754Z 10006KT 10SM BKN035 32/23 A2999
KBOW 171648Z 11006KT 10SM BKN028 31/23 A3001
KBOW 171555Z 12004KT 10SM SCT020 31/23 A3002
KBOW 171355Z 12004KT 10SM SKC 28/26 A3002
KBOW 171255Z 00000KT 10SM SKC 26/ A3001
KBOW 171130Z 00000KT 10SM SKC 23/ A2999
KBOW 171115Z AUTO 00000KT 23/ A2999 RMK AO2
KBOW 171055Z AUTO 00000KT 23/ A2998 RMK AO2
KBOW 171035Z AUTO 00000KT 23/ A2998 RMK AO2
KBOW 171015Z AUTO 00000KT 23/ A2997 RMK AO2
KBOW 170955Z AUTO 00000KT 24/ A2997 RMK AO2
KBOW 170935Z AUTO 00000KT 24/ A2997 RMK AO2
KBOW 170915Z AUTO 00000KT 24/ A2996 RMK AO2